Bierbeek, Belgium
Current Conditions -  °F | °C
As of 9:48 PM on Sunday 23 Nov 2014 (Local Time) from EBBE Reporting Station
Overcast Overcast  
Wind Chill: 13°   Ceiling: 2400
Heat Index: 13°   Visibility: 6mi
Dew Point: 10°   Wind: 7mph
Humidity: 82%   Direction: 250°WSW
Pressure: 29.97"   Gusts: NA
Location:  50.83°N, 4.76°E
Report Text: EBBE 232048Z AUTO 25006KT 9999 BKN024/// OVC160/// 13/10 Q1015 WHT
Loading
Personal Weather Stations






























Interactive Weather Map New forecast layout! Learn more

10-Day Weather Forecast

Advertisements
Track Severe Weather on mobile